Data for 08/15/2006

Time Sea-Level Adjusted Pressure Absolute Pressure Temperature Relative Humidity Dew Point   
(mb) (inHg) (mb) (inHg) (C) (F) (%) (C) (F)
00:05 1017 30.03 846 24.98 16.5 61.7 32 -0 32
00:10 1017 30.03 846 24.98 16.5 61.6 32 -0.1 31.8
00:15 1017 30.03 847 25.01 16.4 61.6 33 0.3 32.5
00:20 1017 30.03 847 25.01 16.1 61 33 0.1 32.1
00:25 1017 30.03 847 25.01 16.3 61.4 32 -0.1 31.8
00:30 1017 30.03 847 25.01 16.2 61.2 33 -0.2 31.7
00:35 1017 30.03 847 25.01 16.7 62 30 -0.8 30.6
00:40 1018 30.06 847 25.01 17.4 63.3 29 -0.9 30.4
00:45 1017 30.03 847 25.01 17.6 63.7 29 -0.7 30.8
00:50 1017 30.03 847 25.01 17.6 63.6 29 -0.7 30.7
00:55 1018 30.06 847 25.01 17.5 63.6 28 -0.9 30.3
01:00 1018 30.06 847 25.01 17.6 63.6 32 0.7 33.3
01:05 1018 30.06 847 25.01 17.3 63.2 31 0 32.1
01:10 1018 30.06 847 25.01 17.2 62.9 29 -0.8 30.6
01:15 1018 30.06 847 25.01 17.2 63 28 -1.2 29.8
01:20 1018 30.06 847 25.01 17.5 63.5 30 -0.3 31.5
01:25 1018 30.06 847 25.01 17.5 63.5 28 -1.1 30
01:30 1018 30.06 847 25.01 17.5 63.4 31 0.3 32.6
01:35 1018 30.06 847 25.01 16.7 62 37 2 35.6
01:40 1018 30.06 847 25.01 16.7 62.1 30 -1 30.1
01:45 1018 30.06 847 25.01 16.9 62.4 31 -0 32
01:50 1018 30.06 847 25.01 16.3 61.4 36 1.3 34.4
01:55 1018 30.06 847 25.01 15.7 60.3 36 0.7 33.2
02:00 1018 30.06 847 25.01 15.1 59.1 41 2.1 35.8
02:05 1018 30.06 847 25.01 14.9 58.8 37 0.3 32.6
02:10 1018 30.06 847 25.01 15.2 59.3 41 1.9 35.5
02:15 1018 30.06 847 25.01 15.2 59.4 34 -0.4 31.3
02:20 1018 30.06 847 25.01 15.5 60 33 -0.5 31.2
02:25 1018 30.06 847 25.01 16.2 61.1 31 -0.8 30.6
02:30 1018 30.06 847 25.01 16.2 61.1 33 -0.1 31.8
02:35 1018 30.06 847 25.01 15.3 59.6 35 0.2 32.3
02:40 1018 30.06 847 25.01 14.4 58 39 0.6 33.1
02:45 1018 30.06 847 25.01 14.2 57.5 37 -0.1 31.9
02:50 1018 30.06 847 25.01 14.4 58 36 -0.4 31.3
02:55 1018 30.06 847 25.01 14.6 58.3 35 -0.6 30.9
03:00 1018 30.06 847 25.01 14.8 58.7 34 -0.9 30.4
03:05 1018 30.06 847 25.01 15.2 59.3 33 -1 30.2
03:10 1018 30.06 847 25.01 15.4 59.7 32 -1.1 30
03:15 1018 30.06 847 25.01 15.5 59.9 32 -1 30.2
03:20 1017 30.03 847 25.01 15.6 60.2 31 -1.3 29.7
03:25 1018 30.06 847 25.01 15.7 60.3 32 -0.8 30.5
03:30 1018 30.06 847 25.01 15.4 59.8 33 -0.8 30.5
03:35 1018 30.06 847 25.01 15.1 59.1 34 -0.5 31
03:40 1018 30.06 847 25.01 15 59 33 -1 30.3
03:45 1018 30.06 847 25.01 15.3 59.6 34 -0.4 31.3
03:50 1018 30.06 847 25.01 15.5 60 32 -1 30.2
03:55 1018 30.06 847 25.01 15.6 60.1 32 -0.9 30.3
04:00 1018 30.06 847 25.01 15.5 59.8 34 -0.3 31.4
04:05 1018 30.06 847 25.01 15.1 59.1 33 -1 30.2
04:10 1018 30.06 847 25.01 15.1 59.2 34 -0.4 31.3
04:15 1018 30.06 847 25.01 15.3 59.5 33 -1 30.2
04:20 1018 30.06 847 25.01 15.6 60.1 33 -0.4 31.2
04:25 1018 30.06 847 25.01 15.3 59.6 33 -0.7 30.8
04:30 1018 30.06 847 25.01 14.9 58.8 34 -0.6 30.9
04:35 1018 30.06 847 25.01 15 59.1 32 -1.4 29.5
04:40 1018 30.06 847 25.01 15.7 60.2 30 -1.6 29.1
04:45 1018 30.06 847 25.01 15.7 60.2 34 -0.2 31.6
04:50 1018 30.06 847 25.01 15.3 59.5 32 -1.4 29.5
04:55 1018 30.06 847 25.01 15.2 59.4 34 -0.4 31.3
05:00 1017 30.03 847 25.01 15 59 34 -0.6 30.8
05:05 1018 30.06 847 25.01 14.5 58.1 34 -1.2 29.8
05:10 1018 30.06 847 25.01 14.8 58.7 33 -1.4 29.6
05:15 1017 30.03 847 25.01 14.9 58.8 34 -0.9 30.4
05:20 1017 30.03 847 25.01 14.8 58.7 39 0.9 33.6
05:25 1017 30.03 847 25.01 15 58.9 33 -1 30.3
05:30 1017 30.03 847 25.01 14.9 58.8 33 -1.1 30
05:35 1018 30.06 847 25.01 15.1 59.3 32 -1.4 29.4
05:40 1018 30.06 847 25.01 15.4 59.8 32 -1.1 30
05:45 1018 30.06 847 25.01 15.2 59.4 33 -0.7 30.8
05:50 1018 30.06 847 25.01 15.4 59.7 31 -1.4 29.5
05:55 1018 30.06 847 25.01 15.5 59.9 32 -0.9 30.4
06:00 1018 30.06 847 25.01 15.3 59.6 33 -0.9 30.3
06:05 1018 30.06 847 25.01 15.1 59.2 39 1.4 34.5
06:10 1018 30.06 847 25.01 14.9 58.9 35 -0.1 31.8
06:15 1018 30.06 847 25.01 14.9 58.9 33 -1.1 30
06:20 1018 30.06 847 25.01 14.9 58.8 32 -1.7 29
06:25 1018 30.06 847 25.01 15.3 59.5 33 -0.9 30.4
06:30 1018 30.06 847 25.01 15.2 59.3 33 -1 30.3
06:35 1018 30.06 847 25.01 15.1 59.1 33 -0.9 30.4
06:40 1018 30.06 847 25.01 14.8 58.6 35 -0.5 31.2
06:45 1018 30.06 847 25.01 14.7 58.4 34 -0.8 30.6
06:50 1018 30.06 847 25.01 14.7 58.4 37 0.3 32.5
06:55 1018 30.06 847 25.01 14.5 58.1 44 2.3 36.2
07:00 1018 30.06 847 25.01 14.4 57.8 37 0.1 32.1
07:05 1018 30.06 847 25.01 14.3 57.7 38 0.4 32.7
07:10 1018 30.06 847 25.01 14.9 58.9 34 -0.8 30.6
07:15 1018 30.06 847 25.01 15 59 37 0.4 32.7
07:20 1018 30.06 848 25.04 14.4 58 38 0.2 32.4
07:25 1018 30.06 848 25.04 14.7 58.5 34 -0.9 30.4
07:30 1018 30.06 847 25.01 15.3 59.5 32 -1.4 29.5
07:35 1018 30.06 847 25.01 15.7 60.3 33 -0.5 31.1
07:40 1018 30.06 847 25.01 15.3 59.5 35 -0 32
07:45 1018 30.06 847 25.01 15 59 36 0.1 32.1
07:50 1018 30.06 847 25.01 15 59.1 38 0.9 33.5
07:55 1018 30.06 847 25.01 14.9 58.7 37 0.3 32.6
08:00 1018 30.06 847 25.01 15 59.1 37 0.6 33
08:05 1018 30.06 848 25.04 15.3 59.5 34 -0.4 31.4
08:10 1018 30.06 848 25.04 15.6 60 34 -0.2 31.7
08:15 1018 30.06 848 25.04 15.7 60.2 34 -0.1 31.8
08:20 1018 30.06 848 25.04 16 60.8 33 -0.1 31.8
08:25 1019 30.09 848 25.04 16 60.8 39 2.3 36.2
08:30 1019 30.09 848 25.04 15.8 60.4 41 2.7 36.8
08:35 1019 30.09 848 25.04 15.6 60 44 3.3 38
08:40 1019 30.09 848 25.04 15.8 60.5 34 -0 32
08:45 1019 30.09 848 25.04 15.9 60.7 40 2.3 36.2
08:50 1019 30.09 848 25.04 16.2 61.1 41 3.2 37.7
08:55 1019 30.09 848 25.04 16.3 61.4 41 3.2 37.8
09:00 1019 30.09 848 25.04 16.3 61.4 43 3.7 38.7
09:05 1019 30.09 848 25.04 16.6 61.8 38 2.2 35.9
09:10 1019 30.09 848 25.04 16.6 61.9 48 5.6 42
09:15 1019 30.09 848 25.04 16.6 61.8 41 3.5 38.3
09:20 1019 30.09 848 25.04 16.7 62 46 5 41.1
09:25 1019 30.09 848 25.04 16.9 62.3 33 0.7 33.3
09:30 1019 30.09 848 25.04 17.3 63.1 40 3.7 38.7
09:35 1019 30.09 848 25.04 17.6 63.6 40 3.9 39
09:40 1019 30.09 848 25.04 17.7 63.8 35 2.3 36.1
09:45 1019 30.09 848 25.04 17.9 64.2 40 4.3 39.8
09:50 1019 30.09 848 25.04 18.1 64.5 39 3.9 39
09:55 1019 30.09 848 25.04 18.1 64.5 36 2.9 37.2
10:00 1019 30.09 848 25.04 18.2 64.7 43 5.7 42.2
10:05 1019 30.09 848 25.04 18 64.3 44 5.6 42.1
10:10 1019 30.09 848 25.04 17.7 63.9 48 6.6 43.9
10:15 1019 30.09 848 25.04 17.7 63.8 44 5.3 41.5
10:20 1019 30.09 848 25.04 17.7 63.8 41 4.5 40.1
10:25 1019 30.09 848 25.04 18 64.5 45 5.9 42.7
10:30 1019 30.09 848 25.04 18.3 64.9 45 6.4 43.4
10:35 1019 30.09 848 25.04 18.6 65.6 40 5.1 41.1
10:40 1019 30.09 848 25.04 19.6 67.2 38 4.9 40.8
10:45 1019 30.09 848 25.04 20.3 68.5 35 4.3 39.8
10:50 1019 30.09 848 25.04 20.7 69.3 32 3.7 38.6
10:55 1019 30.09 848 25.04 20.9 69.7 30 3 37.4
11:00 1019 30.09 848 25.04 21.2 70.1 28 1.9 35.4
11:05 1019 30.09 848 25.04 21.3 70.4 28 2.2 35.9
11:10 1019 30.09 848 25.04 21.1 70 29 2.5 36.5
11:15 1019 30.09 848 25.04 20.8 69.4 30 2.6 36.7
11:20 1018 30.06 848 25.04 20.7 69.3 29 2.3 36.1
11:25 1018 30.06 848 25.04 20.7 69.3 30 2.9 37.2
11:30 1018 30.06 848 25.04 20.8 69.5 32 3.8 38.8
11:35 1018 30.06 848 25.04 20.7 69.2 32 3.8 38.8
11:40 1018 30.06 848 25.04 20.7 69.3 32 3.6 38.5
11:45 1018 30.06 847 25.01 20.8 69.5 32 3.8 38.9
11:50 1018 30.06 847 25.01 21.1 70.1 30 3 37.4
11:55 1018 30.06 847 25.01 21.3 70.3 29 2.6 36.6
12:00 1018 30.06 847 25.01 21.8 71.2 29 3.4 38.1
12:05 1018 30.06 847 25.01 22.3 72.1 28 2.9 37.2
12:10 1018 30.06 847 25.01 22.7 72.8 29 3.8 38.8
12:15 1018 30.06 847 25.01 22.6 72.6 27 2.9 37.2
12:20 1018 30.06 847 25.01 22.9 73.2 26 2.8 37.1
12:25 1018 30.06 847 25.01 23.7 74.7 25 2.8 37.1
12:30 1018 30.06 847 25.01 23.9 75.1 23 1.9 35.5
12:35 1018 30.06 847 25.01 24.5 76 22 1.6 34.9
12:40 1018 30.06 847 25.01 25.3 77.6 22 2.2 36
12:45 1018 30.06 847 25.01 25.9 78.5 21 2.1 35.8
12:50 1017 30.03 847 25.01 26.8 80.3 20 2 35.6
12:55 1017 30.03 847 25.01 26.2 79.1 22 3.1 37.5
13:00 1017 30.03 847 25.01 26.1 79.1 21 2.4 36.4
13:05 1017 30.03 847 25.01 26.3 79.3 21 2.6 36.7
13:10 1017 30.03 847 25.01 26.4 79.5 20 2.2 36
13:15 1017 30.03 846 24.98 26.8 80.2 20 2.2 36
13:20 1017 30.03 846 24.98 26.7 80.1 21 3 37.3
13:25 1017 30.03 846 24.98 26.7 80.1 21 2.7 36.9
13:30 1017 30.03 846 24.98 26.1 78.9 22 2.8 37
13:35 1017 30.03 846 24.98 25.6 78.1 23 3 37.5
13:40 1017 30.03 846 24.98 26.5 79.8 22 3.1 37.6
13:45 1017 30.03 846 24.98 25.9 78.7 22 2.6 36.7
13:50 1017 30.03 846 24.98 26 78.7 22 3.2 37.7
13:55 1017 30.03 846 24.98 26.2 79.2 23 3.6 38.4
14:00 1017 30.03 846 24.98 25.9 78.7 22 2.9 37.3
14:05 1017 30.03 846 24.98 26.3 79.4 22 3 37.4
14:10 1017 30.03 846 24.98 26.5 79.7 21 2.9 37.3
14:15 1017 30.03 846 24.98 26.3 79.3 23 3.6 38.5
14:20 1017 30.03 846 24.98 26.4 79.4 21 2.8 37.1
14:25 1017 30.03 846 24.98 26.1 79 24 4 39.2
14:30 1017 30.03 846 24.98 26 78.8 23 3.3 37.9
14:35 1017 30.03 846 24.98 26.1 79 24 3.9 39.1
14:40 1016 30 846 24.98 25.9 78.6 23 3.2 37.8
14:45 1016 30 846 24.98 25.7 78.3 23 3.3 37.9
14:50 1016 30 846 24.98 25.9 78.5 23 3.4 38.1
14:55 1016 30 846 24.98 25.7 78.3 23 3.3 37.9
15:00 1016 30 846 24.98 25.8 78.5 23 3.5 38.4
15:05 1016 30 845 24.95 25.8 78.4 23 3.4 38.1
15:10 1016 30 845 24.95 25.5 77.9 24 3.7 38.6
15:15 1016 30 845 24.95 25.5 77.9 24 3.6 38.4
15:20 1016 30 845 24.95 25.5 77.9 24 3.6 38.4
15:25 1016 30 845 24.95 25.4 77.7 24 3.4 38.2
15:30 1016 30 845 24.95 25.3 77.6 23 3 37.3
15:35 1016 30 845 24.95 25.3 77.6 24 3.4 38
15:40 1016 30 845 24.95 25.3 77.6 28 5.6 42
15:45 1016 30 845 24.95 25 77.1 19 -0.1 31.9
15:50 1016 30 845 24.95 25.1 77.2 15 -2.7 27.2
15:55 1016 30 845 24.95 25.1 77.3 15 -2.8 27
16:00 1016 30 845 24.95 25.1 77.2 19 0.4 32.7
16:05 1016 30 845 24.95 24.8 76.6 19 -0.3 31.5
16:10 1016 30 846 24.98 24.9 76.9 17 -1.2 29.9
16:15 1016 30 845 24.95 25.3 77.6 17 -1.4 29.4
16:20 1016 30 845 24.95 25.7 78.3 16 -1.6 29
16:25 1016 30 845 24.95 25.8 78.5 18 0.1 32.2
16:30 1016 30 845 24.95 25.3 77.5 17 -1 30.3
16:35 1016 30 845 24.95 25.2 77.3 19 0.3 32.5
16:40 1016 30 845 24.95 24.9 76.9 20 0.9 33.6
16:45 1016 30 845 24.95 24.7 76.4 20 0.6 33
16:50 1016 30 845 24.95 24.4 75.9 23 2.3 36.1
16:55 1016 30 845 24.95 23.9 75 27 4 39.2
17:00 1016 30 845 24.95 23.4 74 28 3.8 38.9
17:05 1016 30 845 24.95 23.1 73.5 27 3.4 38.1
17:10 1016 30 845 24.95 23 73.5 28 4 39.1
17:15 1016 30 845 24.95 23 73.3 28 3.6 38.4
17:20 1016 30 845 24.95 22.8 73 29 3.8 38.9
17:25 1016 30 846 24.98 22.5 72.5 30 4.2 39.6
17:30 1017 30.03 846 24.98 22.4 72.4 30 4.2 39.6
17:35 1017 30.03 846 24.98 22.4 72.4 30 4.1 39.4
17:40 1017 30.03 847 25.01 22.5 72.6 30 4.1 39.4
17:45 1018 30.06 847 25.01 22.5 72.5 30 4.4 40
17:50 1019 30.09 848 25.04 22.1 71.8 33 5.4 41.7
17:55 1019 30.09 848 25.04 20.6 69 40 6.6 43.9
18:00 1019 30.09 849 25.07 18.9 65.9 54 9.6 49.2
18:05 1020 30.12 849 25.07 16.8 62.2 67 10.7 51.3
18:10 1020 30.12 849 25.07 15.9 60.6 68 10.1 50.1
18:15 1020 30.12 849 25.07 15.7 60.2 70 10.2 50.4
18:20 1020 30.12 849 25.07 15.3 59.6 74 10.7 51.3
18:25 1020 30.12 850 25.1 15 58.9 75 10.5 50.9
18:30 1020 30.12 850 25.1 14.8 58.7 74 10.4 50.7
18:35 1021 30.15 850 25.1 14.9 58.9 73 10.2 50.3
18:40 1021 30.15 850 25.1 14.9 58.7 75 10.5 50.9
18:45 1021 30.15 850 25.1 14.7 58.5 77 10.7 51.3
18:50 1021 30.15 850 25.1 14.8 58.6 75 10.3 50.6
18:55 1021 30.15 850 25.1 15 58.9 74 10.5 50.8
19:00 1021 30.15 850 25.1 15 58.9 73 10.2 50.4
19:05 1021 30.15 850 25.1 14.9 58.9 74 10.4 50.7
19:10 1021 30.15 850 25.1 15 59 76 10.8 51.4
19:15 1021 30.15 850 25.1 14.9 58.8 77 10.8 51.5
19:20 1021 30.15 850 25.1 14.9 58.7 78 11.2 52.1
19:25 1021 30.15 850 25.1 14.6 58.2 82 11.6 52.9
19:30 1021 30.15 850 25.1 14.2 57.6 84 11.7 53
19:35 1020 30.12 849 25.07 14 57.3 84 11.4 52.5
19:40 1020 30.12 849 25.07 13.9 57.1 86 11.6 52.8
19:45 1020 30.12 849 25.07 13.9 57.1 87 11.7 53.1
19:50 1020 30.12 849 25.07 13.9 56.9 84 11.2 52.1
19:55 1020 30.12 849 25.07 14 57.1 84 11.3 52.4
20:00 1020 30.12 849 25.07 14 57.2 84 11.4 52.6
20:05 1020 30.12 849 25.07 14 57.2 85 11.5 52.6
20:10 1020 30.12 849 25.07 14.1 57.3 83 11.2 52.1
20:15 1020 30.12 849 25.07 14.1 57.4 83 11.3 52.3
20:20 1020 30.12 849 25.07 14.1 57.3 84 11.4 52.5
20:25 1020 30.12 849 25.07 14 57.3 84 11.5 52.6
20:30 1020 30.12 849 25.07 14 57.2 88 12.1 53.8
20:35 1020 30.12 849 25.07 13.9 57.1 86 11.6 52.9
20:40 1019 30.09 849 25.07 13.7 56.7 86 11.5 52.7
20:45 1019 30.09 849 25.07 13.7 56.6 88 11.7 53
20:50 1019 30.09 849 25.07 13.6 56.6 86 11.3 52.3
20:55 1020 30.12 849 25.07 13.6 56.5 85 11.1 51.9
21:00 1020 30.12 849 25.07 13.4 56.2 85 11 51.9
21:05 1020 30.12 849 25.07 13.4 56.1 84 10.7 51.3
21:10 1020 30.12 849 25.07 13.3 55.9 86 11 51.8
21:15 1020 30.12 849 25.07 13.2 55.7 82 10.2 50.4
21:20 1019 30.09 849 25.07 13.1 55.6 85 10.7 51.2
21:25 1019 30.09 849 25.07 12.9 55.3 86 10.7 51.2
21:30 1019 30.09 848 25.04 12.9 55.2 85 10.5 50.9
21:35 1019 30.09 848 25.04 13 55.5 84 10.4 50.6
21:40 1019 30.09 848 25.04 13.1 55.6 83 10.4 50.7
21:45 1019 30.09 848 25.04 13.2 55.7 83 10.3 50.5
21:50 1019 30.09 849 25.07 13.2 55.7 80 9.9 49.8
21:55 1019 30.09 848 25.04 13.3 55.9 79 9.8 49.6
22:00 1019 30.09 848 25.04 13.4 56.2 78 9.7 49.5
22:05 1019 30.09 848 25.04 13.6 56.4 77 9.7 49.5
22:10 1019 30.09 848 25.04 13.7 56.6 75 9.4 49
22:15 1019 30.09 848 25.04 13.7 56.6 76 9.6 49.2
22:20 1019 30.09 848 25.04 13.5 56.2 77 9.6 49.3
22:25 1019 30.09 848 25.04 13.5 56.4 76 9.5 49
22:30 1019 30.09 848 25.04 13.5 56.3 74 9.1 48.3
22:35 1019 30.09 848 25.04 13.7 56.7 72 8.8 47.9
22:40 1019 30.09 848 25.04 13.7 56.6 72 8.9 47.9
22:45 1019 30.09 848 25.04 13.7 56.6 72 8.7 47.6
22:50 1019 30.09 848 25.04 13.9 56.9 69 8.3 46.9
22:55 1019 30.09 848 25.04 14.1 57.3 68 8.4 47.2
23:00 1019 30.09 848 25.04 14.2 57.5 67 8.1 46.6
23:05 1019 30.09 848 25.04 14.2 57.6 67 8.2 46.8
23:10 1019 30.09 848 25.04 14.3 57.7 66 8.2 46.7
23:15 1019 30.09 848 25.04 14.2 57.6 67 8.3 47
23:20 1019 30.09 848 25.04 14.2 57.5 68 8.3 46.9
23:25 1019 30.09 848 25.04 14 57.2 69 8.4 47.2
23:30 1019 30.09 848 25.04 13.8 56.9 70 8.4 47.2
23:35 1019 30.09 848 25.04 13.7 56.6 71 8.6 47.5
23:40 1019 30.09 848 25.04 13.5 56.2 71 8.4 47.1
23:45 1019 30.09 848 25.04 13.3 56 75 9 48.2
23:50 1019 30.09 848 25.04 12.5 54.4 77 8.6 47.6
23:55 1019 30.09 848 25.04 12.4 54.3 77 8.4 47.2
24:00 1019 30.09 848 25.04 12.3 54.1 78 8.5 47.4